createdAt,value
2022-12-11T00:02:09.753Z,10.47
2022-12-11T00:04:39.062Z,10.48
2022-12-11T00:07:08.426Z,10.50
2022-12-11T00:09:39.532Z,10.54
2022-12-11T00:12:09.549Z,10.55
2022-12-11T00:14:38.914Z,10.57
2022-12-11T00:17:08.201Z,10.59
2022-12-11T00:19:37.628Z,10.60
2022-12-11T00:22:06.990Z,10.60
2022-12-11T00:24:36.534Z,10.62
2022-12-11T00:27:08.145Z,10.61
2022-12-11T00:29:37.581Z,10.64
2022-12-11T00:32:07.299Z,10.64
2022-12-11T00:34:36.831Z,10.65
2022-12-11T00:37:06.279Z,10.68
2022-12-11T00:39:35.539Z,10.68
2022-12-11T00:42:06.655Z,10.71
2022-12-11T00:44:36.232Z,10.74
2022-12-11T00:47:06.235Z,10.74
2022-12-11T00:50:57.189Z,10.76
2022-12-11T00:53:26.809Z,10.75
2022-12-11T00:55:56.303Z,10.72
2022-12-11T00:58:25.939Z,10.73
2022-12-11T01:00:55.547Z,10.72
2022-12-11T01:03:25.020Z,10.73
2022-12-11T01:05:56.872Z,10.72
2022-12-11T01:08:26.268Z,10.72
2022-12-11T01:11:05.350Z,10.74
2022-12-11T01:13:35.352Z,10.75
2022-12-11T01:16:10.627Z,10.76
2022-12-11T01:18:40.362Z,10.78
2022-12-11T01:21:15.168Z,10.79
2022-12-11T01:23:45.209Z,10.80
2022-12-11T01:26:16.909Z,10.81
2022-12-11T01:28:47.170Z,10.86
2022-12-11T01:31:18.633Z,10.87
2022-12-11T01:33:48.085Z,10.88
2022-12-11T01:36:22.169Z,10.91
2022-12-11T01:38:53.771Z,10.93
2022-12-11T01:41:23.713Z,10.95
2022-12-11T01:44:06.885Z,10.97
2022-12-11T01:46:38.027Z,11.00
2022-12-11T01:49:11.832Z,11.00
2022-12-11T01:51:47.364Z,11.02
2022-12-11T01:54:21.102Z,11.03
2022-12-11T01:56:54.930Z,11.04
2022-12-11T01:59:28.888Z,11.07
2022-12-11T02:02:05.334Z,11.05
2022-12-11T02:04:38.212Z,11.03
2022-12-11T02:07:08.906Z,11.04
2022-12-11T02:09:40.680Z,11.03
2022-12-11T02:12:20.908Z,11.04
2022-12-11T02:15:01.314Z,11.02
2022-12-11T02:17:40.421Z,10.99
2022-12-11T02:20:17.680Z,10.99
2022-12-11T02:23:18.470Z,10.99
2022-12-11T02:26:04.202Z,11.00
2022-12-11T02:28:39.131Z,10.98
2022-12-11T02:31:16.083Z,10.95
2022-12-11T02:33:55.393Z,10.96
2022-12-11T02:36:28.214Z,10.95
2022-12-11T02:39:01.283Z,10.94
2022-12-11T02:41:32.134Z,10.91
2022-12-11T02:44:05.675Z,10.89
2022-12-11T02:46:37.209Z,10.88
2022-12-11T02:49:10.164Z,10.91
2022-12-11T02:51:43.640Z,10.91
2022-12-11T02:54:20.887Z,10.95
2022-12-11T02:56:58.762Z,10.97
2022-12-11T02:59:38.750Z,10.99
2022-12-11T03:02:08.791Z,11.02
2022-12-11T03:04:39.188Z,11.04
2022-12-11T03:07:14.029Z,11.12
2022-12-11T03:09:46.274Z,11.16
2022-12-11T03:12:20.769Z,11.18
2022-12-11T03:14:52.582Z,11.17
2022-12-11T03:17:25.843Z,11.16
2022-12-11T03:20:07.604Z,11.17
2022-12-11T03:22:42.586Z,11.19
2022-12-11T03:25:17.670Z,11.23
2022-12-11T03:27:54.949Z,11.26
2022-12-11T03:30:27.667Z,11.23
2022-12-11T03:33:04.791Z,11.19
2022-12-11T03:35:38.924Z,11.15
2022-12-11T03:38:12.328Z,11.09
2022-12-11T03:40:45.961Z,11.06
2022-12-11T03:43:16.671Z,11.03
2022-12-11T03:45:50.447Z,11.04
2022-12-11T03:48:21.154Z,11.11
2022-12-11T03:51:59.325Z,11.11
2022-12-11T03:54:30.054Z,11.11
2022-12-11T03:57:02.812Z,11.15
2022-12-11T03:59:32.329Z,11.16
2022-12-11T04:02:01.785Z,11.15
2022-12-11T04:04:31.270Z,11.15
2022-12-11T04:07:02.036Z,11.18
2022-12-11T04:09:31.364Z,11.14
2022-12-11T04:12:00.808Z,11.11
2022-12-11T04:14:48.692Z,11.10
2022-12-11T04:17:38.471Z,11.12
2022-12-11T04:20:26.630Z,11.10
2022-12-11T04:23:14.906Z,11.07
2022-12-11T04:25:44.285Z,11.02
2022-12-11T04:28:13.748Z,11.00
2022-12-11T04:30:43.171Z,10.94
2022-12-11T04:33:12.663Z,10.93
2022-12-11T04:35:41.970Z,10.87
2022-12-11T04:38:12.686Z,10.82
2022-12-11T04:40:42.342Z,10.76
2022-12-11T04:43:11.540Z,10.71
2022-12-11T04:45:40.929Z,10.70
2022-12-11T04:48:10.208Z,10.75
2022-12-11T04:50:39.626Z,10.80
2022-12-11T04:53:08.887Z,10.85
2022-12-11T04:55:41.790Z,10.88
2022-12-11T04:58:11.128Z,10.91
2022-12-11T05:00:41.626Z,10.94
2022-12-11T05:03:11.362Z,11.00
2022-12-11T05:05:41.289Z,11.03
2022-12-11T05:08:10.504Z,11.05
2022-12-11T05:10:44.523Z,11.09
2022-12-11T05:13:17.963Z,11.09
2022-12-11T05:15:47.428Z,11.09
2022-12-11T05:18:16.900Z,11.10
2022-12-11T05:20:46.229Z,11.17
2022-12-11T05:23:15.469Z,11.15
2022-12-11T05:25:52.596Z,11.10
2022-12-11T05:28:22.080Z,11.04
2022-12-11T05:30:56.012Z,11.03
2022-12-11T05:33:25.530Z,10.98
2022-12-11T05:35:54.954Z,10.94
2022-12-11T05:38:24.809Z,10.89
2022-12-11T05:41:03.823Z,10.81
2022-12-11T05:43:37.152Z,10.76
2022-12-11T05:46:12.685Z,10.68
2022-12-11T05:48:43.249Z,10.55
2022-12-11T05:51:13.468Z,10.41
2022-12-11T05:53:44.701Z,10.28
2022-12-11T05:56:18.060Z,10.18
2022-12-11T05:58:48.201Z,10.12
2022-12-11T06:01:20.998Z,10.17
2022-12-11T06:03:50.650Z,10.15
2022-12-11T06:06:20.155Z,10.16
2022-12-11T06:08:52.527Z,10.12
2022-12-11T06:11:24.583Z,10.03
2022-12-11T06:13:54.630Z,9.97
2022-12-11T06:16:25.357Z,9.90
2022-12-11T06:18:58.355Z,9.86
2022-12-11T06:21:30.120Z,9.84
2022-12-11T06:24:02.509Z,9.87
2022-12-11T06:26:33.826Z,9.90
2022-12-11T06:29:05.260Z,9.87
2022-12-11T06:31:38.493Z,9.91
2022-12-11T06:34:07.811Z,9.95
2022-12-11T06:36:37.169Z,9.93
2022-12-11T06:39:06.759Z,9.93
2022-12-11T06:41:37.808Z,9.95
2022-12-11T06:44:07.271Z,9.92
2022-12-11T06:46:36.525Z,9.93
2022-12-11T06:51:57.232Z,10.17
2022-12-11T06:54:28.388Z,10.34
2022-12-11T06:56:57.710Z,10.44
2022-12-11T06:59:27.069Z,10.52
2022-12-11T07:01:56.446Z,10.58
2022-12-11T07:04:27.643Z,10.67
2022-12-11T07:06:58.704Z,10.71
2022-12-11T07:09:27.989Z,10.76
2022-12-11T07:11:57.466Z,10.75
2022-12-11T07:14:26.937Z,10.78
2022-12-11T07:16:56.290Z,10.89
2022-12-11T07:19:25.921Z,10.95
2022-12-11T07:21:56.887Z,10.94
2022-12-11T07:24:26.422Z,10.98
2022-12-11T07:26:55.699Z,11.01
2022-12-11T07:29:25.111Z,11.12
2022-12-11T07:31:54.611Z,11.14
2022-12-11T07:34:24.029Z,11.23
2022-12-11T07:36:53.344Z,11.28
2022-12-11T07:39:24.216Z,11.26
2022-12-11T07:41:53.804Z,11.25
2022-12-11T07:44:23.504Z,11.23
2022-12-11T07:46:52.909Z,11.27
2022-12-11T07:49:22.270Z,11.28
2022-12-11T07:51:51.712Z,11.32
2022-12-11T07:54:22.469Z,11.41
2022-12-11T07:56:53.967Z,11.48
2022-12-11T07:59:23.501Z,11.60
2022-12-11T08:01:53.088Z,11.78
2022-12-11T08:04:22.467Z,11.99
2022-12-11T08:06:51.852Z,12.16
2022-12-11T08:09:23.509Z,12.23
2022-12-11T08:11:53.684Z,12.36
2022-12-11T08:14:23.287Z,12.60
2022-12-11T08:16:52.662Z,12.71
2022-12-11T08:19:22.206Z,12.81
2022-12-11T08:21:51.530Z,12.83
2022-12-11T08:24:22.370Z,12.85
2022-12-11T08:26:51.721Z,12.88
2022-12-11T08:29:21.053Z,12.85
2022-12-11T08:31:50.301Z,12.90
2022-12-11T08:34:19.601Z,12.93
2022-12-11T08:36:48.970Z,12.94
2022-12-11T08:39:18.266Z,12.93
2022-12-11T08:41:48.983Z,12.89
2022-12-11T08:44:18.243Z,12.84
2022-12-11T08:46:48.591Z,12.84
2022-12-11T08:49:17.986Z,12.85
2022-12-11T08:51:47.295Z,12.86
2022-12-11T08:54:16.669Z,12.91
2022-12-11T08:56:47.447Z,12.95
2022-12-11T08:59:16.848Z,12.96
2022-12-11T09:01:46.135Z,13.01
2022-12-11T09:04:15.728Z,13.06
2022-12-11T09:06:45.148Z,13.12
2022-12-11T09:09:14.948Z,13.21
2022-12-11T09:11:44.656Z,13.25
2022-12-11T09:14:16.286Z,13.25
2022-12-11T09:16:47.178Z,13.25
2022-12-11T09:19:18.045Z,13.23
2022-12-11T09:21:47.729Z,13.21
2022-12-11T09:24:17.404Z,13.23
2022-12-11T09:26:47.462Z,13.26
2022-12-11T09:29:18.380Z,13.28
2022-12-11T09:31:49.331Z,13.34
2022-12-11T09:34:18.653Z,13.34
2022-12-11T09:36:47.982Z,13.31
2022-12-11T09:39:18.948Z,13.33
2022-12-11T09:41:57.284Z,13.36
2022-12-11T09:44:43.721Z,13.50
2022-12-11T09:47:33.688Z,13.70
2022-12-11T09:52:12.735Z,13.80
2022-12-11T09:54:49.868Z,13.85
2022-12-11T09:57:36.089Z,13.89
2022-12-11T10:00:22.095Z,13.84
2022-12-11T10:03:35.829Z,13.78
2022-12-11T10:06:17.170Z,13.74
2022-12-11T10:09:02.507Z,13.77
2022-12-11T10:12:00.347Z,13.76
2022-12-11T10:14:45.684Z,13.73
2022-12-11T10:17:21.781Z,13.72
2022-12-11T10:19:52.296Z,13.76
2022-12-11T10:22:27.765Z,13.83
2022-12-11T10:25:16.572Z,13.87
2022-12-11T10:27:46.703Z,13.88
2022-12-11T10:30:20.812Z,13.87
2022-12-11T10:32:56.053Z,13.88
2022-12-11T10:35:38.849Z,13.85
2022-12-11T10:38:16.897Z,13.83
2022-12-11T10:40:51.595Z,13.81
2022-12-11T10:43:21.135Z,13.84
2022-12-11T10:45:55.837Z,13.87
2022-12-11T10:48:25.878Z,13.90
2022-12-11T10:51:02.371Z,13.92
2022-12-11T10:53:33.628Z,13.92
2022-12-11T10:56:05.023Z,13.92
2022-12-11T10:58:36.129Z,13.90
2022-12-11T11:01:11.995Z,13.86
2022-12-11T11:03:57.258Z,13.84
2022-12-11T11:06:28.413Z,13.80
2022-12-11T11:09:00.423Z,13.78
2022-12-11T11:11:35.219Z,13.84
2022-12-11T11:14:15.109Z,13.96
2022-12-11T11:16:47.168Z,14.03
2022-12-11T11:19:28.908Z,14.05
2022-12-11T11:22:02.522Z,14.02
2022-12-11T11:24:36.912Z,13.99
2022-12-11T11:27:15.943Z,13.95
2022-12-11T11:29:51.573Z,13.90
2022-12-11T11:32:29.473Z,13.88
2022-12-11T11:35:24.756Z,13.88
2022-12-11T11:38:08.031Z,13.89
2022-12-11T11:40:43.910Z,13.93
2022-12-11T11:43:22.853Z,14.00
2022-12-11T11:45:59.228Z,14.02
2022-12-11T11:48:39.201Z,14.01
2022-12-11T11:51:17.818Z,13.99
2022-12-11T11:53:52.633Z,13.99
2022-12-11T11:56:25.367Z,14.06
2022-12-11T11:59:13.017Z,14.13
2022-12-11T12:01:43.993Z,14.18
2022-12-11T12:04:14.906Z,14.25
2022-12-11T12:07:15.850Z,14.23
2022-12-11T12:09:55.703Z,14.21
2022-12-11T12:12:37.606Z,14.15
2022-12-11T12:15:35.171Z,14.04
2022-12-11T12:18:14.080Z,13.96
2022-12-11T12:20:52.550Z,13.87
2022-12-11T12:23:46.326Z,13.79
2022-12-11T12:26:25.752Z,13.74
2022-12-11T12:29:08.086Z,13.68
2022-12-11T12:32:03.600Z,13.64
2022-12-11T12:34:54.208Z,13.59
2022-12-11T12:37:45.921Z,13.59
2022-12-11T12:40:28.388Z,13.58
2022-12-11T12:43:07.722Z,13.58
2022-12-11T12:45:45.939Z,13.59
2022-12-11T12:48:16.691Z,13.61
2022-12-11T12:51:58.082Z,13.62
2022-12-11T12:54:31.561Z,13.61
2022-12-11T12:57:04.554Z,13.62
2022-12-11T12:59:34.291Z,13.58
2022-12-11T13:02:06.849Z,13.55
2022-12-11T13:04:58.461Z,13.50
2022-12-11T13:07:32.931Z,13.50
2022-12-11T13:10:23.266Z,13.48
2022-12-11T13:12:52.801Z,13.49
2022-12-11T13:15:37.665Z,13.51
2022-12-11T13:18:33.705Z,13.54
2022-12-11T13:21:04.668Z,13.56
2022-12-11T13:23:40.481Z,13.54
2022-12-11T13:26:12.079Z,13.52
2022-12-11T13:28:52.022Z,13.49
2022-12-11T13:31:36.539Z,13.49
2022-12-11T13:34:17.811Z,13.46
2022-12-11T13:36:52.464Z,13.42
2022-12-11T13:39:27.693Z,13.41
2022-12-11T13:42:01.762Z,13.39
2022-12-11T13:44:38.408Z,13.36
2022-12-11T13:47:14.999Z,13.33
2022-12-11T13:49:48.008Z,13.30
2022-12-11T13:52:21.308Z,13.26
2022-12-11T13:54:55.727Z,13.22
2022-12-11T13:57:28.644Z,13.17
2022-12-11T14:00:00.869Z,13.13
2022-12-11T14:02:33.870Z,13.09
2022-12-11T14:05:06.560Z,13.07
2022-12-11T14:07:42.132Z,13.04
2022-12-11T14:10:21.267Z,13.00
2022-12-11T14:12:56.914Z,12.96
2022-12-11T14:15:27.173Z,12.91
2022-12-11T14:17:57.584Z,12.87
2022-12-11T14:20:30.512Z,12.83
2022-12-11T14:23:08.038Z,12.79
2022-12-11T14:25:38.830Z,12.74
2022-12-11T14:28:18.309Z,12.71
2022-12-11T14:30:52.508Z,12.68
2022-12-11T14:33:24.950Z,12.65
2022-12-11T14:35:54.828Z,12.61
2022-12-11T14:38:29.317Z,12.57
2022-12-11T14:41:07.355Z,12.49
2022-12-11T14:43:44.366Z,12.37
2022-12-11T14:46:19.791Z,12.30
2022-12-11T14:49:00.445Z,12.23
2022-12-11T14:51:36.850Z,12.16
2022-12-11T14:54:07.008Z,12.12
2022-12-11T14:56:37.982Z,12.06
2022-12-11T14:59:19.523Z,12.00
2022-12-11T15:02:00.869Z,11.90
2022-12-11T15:04:33.039Z,11.81
2022-12-11T15:07:02.909Z,11.71
2022-12-11T15:09:40.969Z,11.61
2022-12-11T15:12:16.138Z,11.50
2022-12-11T15:14:51.778Z,11.41
2022-12-11T15:17:22.230Z,11.35
2022-12-11T15:19:54.610Z,11.32
2022-12-11T15:22:26.416Z,11.26
2022-12-11T15:24:57.024Z,11.23
2022-12-11T15:27:35.761Z,11.18
2022-12-11T15:30:26.898Z,11.11
2022-12-11T15:33:22.298Z,11.08
2022-12-11T15:36:04.309Z,10.98
2022-12-11T15:38:39.790Z,10.96
2022-12-11T15:41:16.302Z,10.93
2022-12-11T15:43:47.650Z,10.93
2022-12-11T15:46:18.196Z,10.90
2022-12-11T15:51:57.041Z,10.75
2022-12-11T15:54:26.349Z,10.66
2022-12-11T15:56:55.759Z,10.59
2022-12-11T15:59:25.494Z,10.57
2022-12-11T16:01:54.942Z,10.49
2022-12-11T16:04:24.328Z,10.45
2022-12-11T16:06:55.521Z,10.44
2022-12-11T16:09:24.905Z,10.43
2022-12-11T16:11:54.166Z,10.42
2022-12-11T16:14:23.459Z,10.37
2022-12-11T16:16:52.949Z,10.31
2022-12-11T16:19:22.337Z,10.34
2022-12-11T16:21:51.578Z,10.34
2022-12-11T16:24:22.910Z,10.35
2022-12-11T16:26:52.174Z,10.34
2022-12-11T16:29:22.459Z,10.38
2022-12-11T16:31:51.845Z,10.39
2022-12-11T16:34:21.189Z,10.39
2022-12-11T16:36:50.970Z,10.34
2022-12-11T16:39:21.888Z,10.35
2022-12-11T16:41:51.283Z,10.35
2022-12-11T16:44:22.329Z,10.35
2022-12-11T16:46:52.388Z,10.36
2022-12-11T16:49:22.898Z,10.32
2022-12-11T16:51:52.612Z,10.30
2022-12-11T16:54:23.457Z,10.29
2022-12-11T16:56:52.721Z,10.30
2022-12-11T16:59:22.049Z,10.29
2022-12-11T17:01:51.990Z,10.27
2022-12-11T17:04:21.409Z,10.27
2022-12-11T17:06:50.594Z,10.28
2022-12-11T17:09:21.483Z,10.25
2022-12-11T17:11:50.852Z,10.24
2022-12-11T17:14:20.442Z,10.18
2022-12-11T17:16:49.895Z,10.11
2022-12-11T17:19:19.871Z,10.09
2022-12-11T17:21:51.813Z,10.03
2022-12-11T17:24:22.949Z,9.97
2022-12-11T17:26:52.184Z,9.95
2022-12-11T17:29:22.786Z,9.96
2022-12-11T17:31:52.156Z,9.96
2022-12-11T17:34:21.605Z,9.97
2022-12-11T17:36:51.656Z,9.95
2022-12-11T17:39:22.543Z,9.84
2022-12-11T17:41:51.880Z,9.75
2022-12-11T17:44:21.170Z,9.73
2022-12-11T17:46:50.530Z,9.70
2022-12-11T17:49:20.031Z,9.68
2022-12-11T17:51:49.968Z,9.69
2022-12-11T17:54:19.360Z,9.68
2022-12-11T17:56:50.204Z,9.64
2022-12-11T17:59:20.882Z,9.61
2022-12-11T18:01:50.243Z,9.62
2022-12-11T18:04:19.662Z,9.61
2022-12-11T18:06:48.990Z,9.58
2022-12-11T18:09:18.269Z,9.52
2022-12-11T18:11:49.083Z,9.44
2022-12-11T18:14:18.823Z,9.41
2022-12-11T18:16:48.632Z,9.43
2022-12-11T18:19:19.727Z,9.41
2022-12-11T18:21:49.228Z,9.41
2022-12-11T18:24:18.711Z,9.42
2022-12-11T18:26:49.754Z,9.43
2022-12-11T18:29:19.068Z,9.42
2022-12-11T18:31:48.393Z,9.41
2022-12-11T18:34:17.748Z,9.36
2022-12-11T18:36:47.169Z,9.31
2022-12-11T18:39:16.480Z,9.32
2022-12-11T18:41:58.273Z,9.27
2022-12-11T18:44:34.591Z,9.21
2022-12-11T18:47:04.170Z,9.16
2022-12-11T18:51:56.847Z,9.05
2022-12-11T18:54:26.121Z,8.90
2022-12-11T18:56:55.585Z,8.81
2022-12-11T18:59:24.922Z,8.73
2022-12-11T19:01:54.416Z,8.67
2022-12-11T19:04:23.870Z,8.64
2022-12-11T19:06:53.290Z,8.64
2022-12-11T19:09:24.809Z,8.62
2022-12-11T19:11:54.209Z,8.61
2022-12-11T19:14:24.249Z,8.61
2022-12-11T19:16:53.634Z,8.60
2022-12-11T19:19:24.188Z,8.50
2022-12-11T19:21:53.488Z,8.46
2022-12-11T19:24:26.061Z,8.45
2022-12-11T19:26:55.449Z,8.42
2022-12-11T19:29:27.448Z,8.44
2022-12-11T19:31:57.748Z,8.45
2022-12-11T19:34:27.470Z,8.38
2022-12-11T19:36:57.249Z,8.22
2022-12-11T19:39:28.016Z,8.12
2022-12-11T19:41:57.629Z,8.16
2022-12-11T19:44:26.998Z,8.17
2022-12-11T19:46:56.312Z,8.12
2022-12-11T19:49:25.747Z,8.13
2022-12-11T19:51:55.808Z,8.12
2022-12-11T19:54:27.086Z,8.13
2022-12-11T19:56:56.653Z,8.16
2022-12-11T19:59:26.011Z,8.14
2022-12-11T20:01:55.573Z,8.13
2022-12-11T20:04:24.962Z,8.15
2022-12-11T20:06:54.348Z,8.10
2022-12-11T20:09:24.682Z,8.04
2022-12-11T20:11:55.541Z,7.88
2022-12-11T20:14:27.602Z,7.88
2022-12-11T20:17:14.960Z,7.95
2022-12-11T20:19:44.854Z,7.97
2022-12-11T20:22:14.200Z,7.96
2022-12-11T20:24:43.799Z,7.88
2022-12-11T20:27:14.826Z,7.79
2022-12-11T20:29:44.150Z,7.70
2022-12-11T20:32:13.983Z,7.61
2022-12-11T20:34:43.467Z,7.60
2022-12-11T20:37:12.845Z,7.52
2022-12-11T20:39:42.210Z,7.47
2022-12-11T20:42:13.707Z,7.36
2022-12-11T20:44:48.748Z,7.37
2022-12-11T20:47:20.889Z,7.28
2022-12-11T20:49:51.348Z,7.22
2022-12-11T20:52:21.500Z,7.21
2022-12-11T20:54:51.017Z,7.10
2022-12-11T20:57:21.851Z,7.02
2022-12-11T20:59:51.161Z,7.08
2022-12-11T21:02:20.563Z,7.01
2022-12-11T21:04:49.842Z,7.02
2022-12-11T21:07:19.830Z,7.00
2022-12-11T21:09:49.201Z,6.96
2022-12-11T21:12:18.538Z,6.98
2022-12-11T21:14:49.345Z,6.97
2022-12-11T21:17:18.596Z,6.95
2022-12-11T21:19:47.891Z,6.85
2022-12-11T21:22:17.256Z,6.74
2022-12-11T21:24:46.530Z,6.58
2022-12-11T21:27:16.137Z,6.46
2022-12-11T21:29:45.421Z,6.41
2022-12-11T21:32:16.233Z,6.37
2022-12-11T21:34:45.604Z,6.34
2022-12-11T21:37:15.048Z,6.25
2022-12-11T21:39:44.349Z,6.12
2022-12-11T21:42:13.647Z,6.11
2022-12-11T21:47:33.869Z,5.98
2022-12-11T21:51:56.670Z,5.88
2022-12-11T21:54:26.079Z,5.76
2022-12-11T21:56:55.594Z,5.61
2022-12-11T21:59:25.028Z,5.60
2022-12-11T22:01:54.530Z,5.59
2022-12-11T22:04:23.865Z,5.49
2022-12-11T22:06:53.622Z,5.37
2022-12-11T22:09:24.406Z,5.32
2022-12-11T22:11:58.191Z,5.14
2022-12-11T22:14:31.014Z,4.97
2022-12-11T22:17:00.475Z,4.95
2022-12-11T22:19:32.740Z,4.92
2022-12-11T22:22:02.511Z,4.90
2022-12-11T22:24:33.412Z,4.86
2022-12-11T22:27:02.641Z,4.91
2022-12-11T22:29:32.048Z,4.89
2022-12-11T22:32:01.531Z,4.86
2022-12-11T22:34:30.894Z,4.86
2022-12-11T22:37:00.174Z,4.82
2022-12-11T22:39:29.661Z,4.77
2022-12-11T22:42:00.650Z,4.68
2022-12-11T22:44:30.012Z,4.61
2022-12-11T22:46:59.307Z,4.58
2022-12-11T22:49:28.612Z,4.58
2022-12-11T22:51:58.696Z,4.62
2022-12-11T22:54:27.962Z,4.61
2022-12-11T22:56:58.664Z,4.62
2022-12-11T22:59:27.997Z,4.60
2022-12-11T23:01:57.630Z,4.56
2022-12-11T23:04:27.476Z,4.47
2022-12-11T23:06:56.783Z,4.50
2022-12-11T23:09:26.453Z,4.51
2022-12-11T23:11:58.630Z,4.51
2022-12-11T23:14:29.876Z,4.48
2022-12-11T23:16:59.324Z,4.46
2022-12-11T23:19:28.970Z,4.32
2022-12-11T23:21:58.342Z,4.28
2022-12-11T23:24:27.759Z,4.27
2022-12-11T23:26:57.088Z,4.22
2022-12-11T23:29:27.743Z,4.16
2022-12-11T23:31:57.021Z,4.18
2022-12-11T23:34:26.330Z,4.11
2022-12-11T23:36:55.609Z,3.96
2022-12-11T23:39:24.888Z,3.86
2022-12-11T23:41:54.362Z,3.86
2022-12-11T23:44:23.677Z,3.86
2022-12-11T23:46:54.548Z,3.77
2022-12-11T23:49:23.762Z,3.79
2022-12-11T23:51:53.088Z,3.78
2022-12-11T23:54:22.588Z,3.61
2022-12-11T23:56:52.028Z,3.56
2022-12-11T23:59:21.473Z,3.55
